Time;durP1;ratioP1;P1;durP2;ratioP2;P2;SDS_P1;SDS_P2;PMS_P1;PMS_P2;Temp;Humidity;BMP_temperature;BMP_pressure;BME280_temperature;BME280_humidity;BME280_pressure;Samples;Min_cycle;Max_cycle;Signal;HPM_P1;HPM_P2
2022/11/08 00:01:30;;;;;;;;;6.00;6.00;;;;;;;;5083825;27;45553;-74
2022/11/08 00:03:55;;;;;;;;;11.50;9.00;;;;;;;;5081466;27;45501;-74
2022/11/08 00:14:32;;;;;;;;;10.00;7.00;;;;;;;;5081588;27;45454;-74
2022/11/08 00:16:57;;;;;;;;;9.00;8.00;;;;;;;;5087107;27;45443;-74
2022/11/08 00:19:22;;;;;;;;;7.67;6.33;;;;;;;;5090723;27;45468;-74
2022/11/08 00:21:47;;;;;;;;;5.00;5.00;;;;;;;;5093754;27;45583;-74
2022/11/08 00:24:13;;;;;;;;;7.50;7.50;;;;;;;;5081499;27;45402;-74
2022/11/08 00:26:38;;;;;;;;;6.75;6.75;;;;;;;;5082917;27;45465;-74
2022/11/08 00:29:03;;;;;;;;;9.75;7.50;;;;;;;;5082169;27;45436;-74
2022/11/08 00:31:29;;;;;;;;;10.00;6.67;;;;;;;;5085784;27;45307;-74
2022/11/08 00:33:55;;;;;;;;;8.50;8.00;;;;;;;;5085381;27;45344;-73
2022/11/08 00:36:20;;;;;;;;;8.25;6.00;;;;;;;;5085149;27;46296;-74
2022/11/08 00:38:45;;;;;;;;;7.00;7.00;;;;;;;;5081333;27;45266;-75
2022/11/08 00:41:11;;;;;;;;;7.50;6.75;;;;;;;;5083177;27;45460;-74
2022/11/08 00:43:36;;;;;;;;;6.33;6.00;;;;;;;;5082433;27;46697;-74
2022/11/08 00:46:01;;;;;;;;;7.33;7.00;;;;;;;;5082866;27;47680;-74
2022/11/08 00:48:26;;;;;;;;;8.75;5.25;;;;;;;;5081385;27;45408;-74
2022/11/08 00:50:51;;;;;;;;;7.75;7.50;;;;;;;;5083707;27;47776;-74
2022/11/08 00:53:17;;;;;;;;;8.25;6.00;;;;;;;;5081563;27;45406;-74
2022/11/08 00:55:42;;;;;;;;;9.25;7.25;;;;;;;;5083068;27;46363;-74
2022/11/08 00:58:07;;;;;;;;;6.67;6.67;;;;;;;;5084925;27;45179;-74
2022/11/08 01:00:32;;;;;;;;;4.67;4.67;;;;;;;;5085560;27;45445;-74
2022/11/08 01:05:42;;;;;;;;;5.75;4.75;;;;;;;;5091077;27;45496;-74
2022/11/08 01:08:07;;;;;;;;;6.67;6.67;;;;;;;;5082928;27;45145;-74
2022/11/08 01:10:32;;;;;;;;;4.67;4.67;;;;;;;;5093433;27;45354;-73
2022/11/08 01:12:58;;;;;;;;;4.50;4.50;;;;;;;;5085103;27;45716;-74
2022/11/08 01:15:23;;;;;;;;;5.67;4.33;;;;;;;;5080046;27;45515;-74
2022/11/08 01:17:48;;;;;;;;;7.00;5.33;;;;;;;;5092925;27;45372;-73
2022/11/08 01:20:13;;;;;;;;;4.33;4.33;;;;;;;;5090615;27;45536;-74
2022/11/08 01:22:38;;;;;;;;;6.25;5.50;;;;;;;;5080588;27;45161;-74
2022/11/08 01:25:04;;;;;;;;;6.00;4.00;;;;;;;;5080002;27;46704;-73
2022/11/08 01:27:29;;;;;;;;;4.00;4.00;;;;;;;;5083045;27;45272;-74
2022/11/08 01:29:54;;;;;;;;;5.00;5.00;;;;;;;;5079401;27;45256;-74
2022/11/08 01:32:19;;;;;;;;;7.00;5.75;;;;;;;;5082410;27;45470;-74
2022/11/08 01:34:44;;;;;;;;;7.25;6.25;;;;;;;;5088602;27;46398;-74
2022/11/08 01:37:10;;;;;;;;;8.50;6.25;;;;;;;;5083157;27;45248;-74
2022/11/08 01:39:35;;;;;;;;;10.00;6.00;;;;;;;;5080573;27;45341;-74
2022/11/08 01:42:00;;;;;;;;;6.67;5.00;;;;;;;;5082669;27;44934;-74
2022/11/08 01:44:25;;;;;;;;;5.25;5.00;;;;;;;;5092374;27;46668;-74
2022/11/08 01:46:50;;;;;;;;;6.75;6.50;;;;;;;;5091244;27;45193;-74
2022/11/08 01:49:22;;;;;;;;;6.00;5.25;;;;;;;;5096018;27;45519;-74
2022/11/08 01:51:56;;;;;;;;;7.75;6.00;;;;;;;;5086619;27;45413;-74
2022/11/08 01:54:24;;;;;;;;;5.25;5.25;;;;;;;;5080166;27;45379;-74
2022/11/08 01:56:50;;;;;;;;;8.00;6.00;;;;;;;;5083691;27;45422;-74
2022/11/08 01:59:16;;;;;;;;;7.75;6.75;;;;;;;;5078920;27;45474;-74
2022/11/08 02:01:42;;;;;;;;;8.00;6.50;;;;;;;;5080807;27;45405;-74
2022/11/08 02:04:07;;;;;;;;;5.00;4.00;;;;;;;;5080085;27;46612;-74
2022/11/08 02:06:34;;;;;;;;;4.75;4.25;;;;;;;;5080212;27;46668;-74
2022/11/08 02:09:01;;;;;;;;;6.75;5.00;;;;;;;;5080093;27;45314;-74
2022/11/08 02:11:27;;;;;;;;;4.50;3.00;;;;;;;;5080530;27;45452;-74
2022/11/08 02:13:53;;;;;;;;;6.00;4.75;;;;;;;;5079541;27;45150;-74
2022/11/08 02:16:18;;;;;;;;;6.25;5.25;;;;;;;;5080059;27;45333;-74
2022/11/08 02:18:44;;;;;;;;;4.00;4.00;;;;;;;;5094223;27;46094;-74
2022/11/08 02:21:13;;;;;;;;;7.50;6.00;;;;;;;;5084288;27;45433;-74
2022/11/08 02:23:46;;;;;;;;;6.00;5.00;;;;;;;;5082800;27;46260;-74
2022/11/08 02:26:11;;;;;;;;;4.50;4.25;;;;;;;;5082556;27;45540;-74
2022/11/08 02:28:38;;;;;;;;;4.25;4.25;;;;;;;;5079568;28;45240;-74
2022/11/08 02:31:03;;;;;;;;;5.00;5.00;;;;;;;;5084588;27;46131;-74
2022/11/08 02:33:28;;;;;;;;;3.00;3.00;;;;;;;;5096749;27;45581;-74
2022/11/08 02:35:55;;;;;;;;;6.00;5.00;;;;;;;;5087118;27;45461;-74
2022/11/08 02:38:21;;;;;;;;;5.75;5.00;;;;;;;;5079612;27;45468;-74
2022/11/08 02:40:46;;;;;;;;;3.00;3.00;;;;;;;;5084453;27;45422;-74
2022/11/08 02:43:11;;;;;;;;;4.00;3.00;;;;;;;;5079086;27;46384;-73
2022/11/08 02:45:37;;;;;;;;;8.00;4.75;;;;;;;;5081376;27;45509;-74
2022/11/08 02:48:03;;;;;;;;;3.00;3.00;;;;;;;;5081594;27;45426;-74
2022/11/08 02:50:28;;;;;;;;;8.50;4.75;;;;;;;;5095659;27;45386;-74
2022/11/08 02:52:53;;;;;;;;;3.75;3.75;;;;;;;;5081253;27;45306;-74
2022/11/08 02:55:19;;;;;;;;;5.00;5.00;;;;;;;;5081756;27;45245;-74
2022/11/08 02:57:44;;;;;;;;;4.00;3.00;;;;;;;;5080795;27;45521;-74
2022/11/08 03:00:09;;;;;;;;;7.00;5.25;;;;;;;;5082830;27;45146;-73
2022/11/08 03:02:35;;;;;;;;;4.00;4.00;;;;;;;;5079556;27;45704;-74
2022/11/08 03:05:00;;;;;;;;;5.50;3.00;;;;;;;;5079552;27;45363;-73
2022/11/08 03:07:25;;;;;;;;;7.00;6.00;;;;;;;;5086394;27;45256;-73
2022/11/08 03:09:50;;;;;;;;;4.50;4.25;;;;;;;;5079221;27;45413;-73
2022/11/08 03:12:15;;;;;;;;;6.00;3.75;;;;;;;;5078786;27;45326;-73
2022/11/08 03:14:41;;;;;;;;;3.25;3.25;;;;;;;;5078565;27;45210;-74
2022/11/08 03:17:06;;;;;;;;;3.00;3.00;;;;;;;;5080646;27;45189;-74
2022/11/08 03:19:31;;;;;;;;;4.75;4.75;;;;;;;;5079281;27;45268;-74
2022/11/08 03:21:56;;;;;;;;;4.75;4.75;;;;;;;;5081046;27;45446;-74
2022/11/08 03:24:21;;;;;;;;;4.00;4.00;;;;;;;;5077880;28;45326;-74
2022/11/08 03:26:47;;;;;;;;;5.50;4.00;;;;;;;;5083765;27;45300;-74
2022/11/08 03:29:12;;;;;;;;;3.50;3.25;;;;;;;;5076744;27;46736;-74
2022/11/08 03:31:37;;;;;;;;;5.25;3.75;;;;;;;;5087279;27;47991;-73
2022/11/08 03:34:02;;;;;;;;;4.75;3.25;;;;;;;;5085311;27;45351;-74
2022/11/08 03:36:27;;;;;;;;;4.00;4.00;;;;;;;;5086681;27;45504;-74
2022/11/08 03:38:53;;;;;;;;;4.25;4.25;;;;;;;;5084124;27;45413;-74
2022/11/08 03:41:18;;;;;;;;;2.25;2.25;;;;;;;;5089887;27;45506;-74
2022/11/08 03:43:43;;;;;;;;;2.25;2.00;;;;;;;;5100019;27;45436;-73
2022/11/08 03:46:08;;;;;;;;;4.25;4.25;;;;;;;;5093910;27;45432;-74
2022/11/08 03:48:33;;;;;;;;;3.25;3.25;;;;;;;;5082106;27;45296;-73
2022/11/08 03:50:58;;;;;;;;;4.00;3.00;;;;;;;;5085103;27;45436;-74
2022/11/08 03:53:24;;;;;;;;;3.00;2.00;;;;;;;;5082178;27;45377;-74
2022/11/08 03:55:49;;;;;;;;;5.25;3.75;;;;;;;;5084419;27;45474;-74
2022/11/08 03:58:14;;;;;;;;;2.75;2.75;;;;;;;;5084821;27;45430;-74
2022/11/08 04:00:39;;;;;;;;;4.50;3.75;;;;;;;;5093873;27;45562;-74
2022/11/08 04:03:04;;;;;;;;;5.00;3.00;;;;;;;;5081867;27;45276;-74
2022/11/08 04:05:31;;;;;;;;;3.00;3.00;;;;;;;;5080740;27;45548;-74
2022/11/08 04:07:56;;;;;;;;;3.50;3.50;;;;;;;;5088851;27;45472;-74
2022/11/08 04:10:21;;;;;;;;;4.00;4.00;;;;;;;;5083479;27;45301;-74
2022/11/08 04:15:30;;;;;;;;;4.75;3.00;;;;;;;;5083287;27;45385;-74
2022/11/08 04:23:28;;;;;;;;;4.50;3.25;;;;;;;;5081491;27;45486;-74
2022/11/08 04:25:58;;;;;;;;;3.25;3.25;;;;;;;;5083113;27;45440;-74
2022/11/08 04:28:24;;;;;;;;;5.75;3.75;;;;;;;;5081165;27;45012;-73
2022/11/08 04:30:53;;;;;;;;;4.00;2.67;;;;;;;;5083422;27;45587;-73
2022/11/08 04:33:18;;;;;;;;;3.00;3.00;;;;;;;;5083008;27;45304;-74
2022/11/08 04:35:43;;;;;;;;;3.00;3.00;;;;;;;;5085659;27;45365;-73
2022/11/08 04:38:09;;;;;;;;;3.75;2.75;;;;;;;;5081391;27;45224;-74
2022/11/08 04:40:34;;;;;;;;;1.75;0.75;;;;;;;;5083638;27;46214;-74
2022/11/08 04:42:59;;;;;;;;;3.00;3.00;;;;;;;;5079816;27;45362;-74
2022/11/08 04:45:24;;;;;;;;;3.50;2.75;;;;;;;;5084298;27;46333;-74
2022/11/08 04:47:49;;;;;;;;;5.00;2.25;;;;;;;;5095473;27;45233;-74
2022/11/08 04:50:15;;;;;;;;;4.67;3.00;;;;;;;;5096953;27;46229;-74
2022/11/08 04:52:40;;;;;;;;;4.00;4.00;;;;;;;;5081824;27;45400;-74
2022/11/08 04:55:06;;;;;;;;;4.25;3.25;;;;;;;;5092053;27;45456;-74
2022/11/08 04:57:31;;;;;;;;;3.00;3.00;;;;;;;;5088566;27;45417;-73
2022/11/08 04:59:56;;;;;;;;;3.00;3.00;;;;;;;;5080943;27;46257;-74
2022/11/08 05:02:21;;;;;;;;;4.75;3.00;;;;;;;;5085276;27;45152;-74
2022/11/08 05:04:47;;;;;;;;;4.00;2.00;;;;;;;;5092007;27;45388;-74
2022/11/08 05:07:12;;;;;;;;;3.75;2.00;;;;;;;;5080799;27;45453;-73
2022/11/08 05:09:37;;;;;;;;;3.00;3.00;;;;;;;;5081076;27;45268;-73
2022/11/08 05:12:02;;;;;;;;;2.00;2.00;;;;;;;;5083338;27;45315;-73
2022/11/08 05:14:28;;;;;;;;;3.75;3.00;;;;;;;;5080951;27;45333;-73
2022/11/08 05:16:53;;;;;;;;;2.75;2.75;;;;;;;;5091533;27;47075;-73
2022/11/08 05:23:22;;;;;;;;;4.00;3.00;;;;;;;;5082155;27;45492;-73
2022/11/08 05:24:47;;;;;;;;;4.00;3.00;;;;;;;;5080534;27;45232;-74
2022/11/08 05:27:12;;;;;;;;;4.00;4.00;;;;;;;;5084770;27;45429;-74
2022/11/08 05:29:37;;;;;;;;;2.00;2.00;;;;;;;;5080611;27;45473;-74
2022/11/08 05:32:03;;;;;;;;;3.25;2.75;;;;;;;;5085157;27;45431;-74
2022/11/08 05:34:28;;;;;;;;;3.00;3.00;;;;;;;;5084070;27;45366;-73
2022/11/08 05:36:53;;;;;;;;;1.00;1.00;;;;;;;;5086063;27;45415;-73
2022/11/08 05:39:18;;;;;;;;;2.25;2.00;;;;;;;;5079248;27;47148;-73
2022/11/08 05:41:44;;;;;;;;;4.75;4.00;;;;;;;;5082427;27;45422;-74
2022/11/08 05:44:09;;;;;;;;;4.00;3.00;;;;;;;;5078898;27;45361;-73
2022/11/08 05:46:34;;;;;;;;;3.25;3.00;;;;;;;;5082531;27;45420;-74
2022/11/08 05:48:59;;;;;;;;;2.00;2.00;;;;;;;;5080235;27;46234;-74
2022/11/08 05:51:24;;;;;;;;;4.75;2.00;;;;;;;;5084493;27;45333;-74
2022/11/08 05:53:50;;;;;;;;;2.33;2.33;;;;;;;;5082186;27;45271;-73
2022/11/08 05:56:15;;;;;;;;;3.67;2.33;;;;;;;;5093732;27;45460;-73
2022/11/08 05:58:41;;;;;;;;;3.00;3.00;;;;;;;;5095010;27;46486;-73
2022/11/08 06:01:10;;;;;;;;;4.75;3.00;;;;;;;;5087046;27;45577;-74
2022/11/08 06:03:35;;;;;;;;;2.00;2.00;;;;;;;;5080611;27;45287;-75
2022/11/08 06:06:02;;;;;;;;;2.50;2.50;;;;;;;;5081274;27;45225;-75
2022/11/08 06:08:27;;;;;;;;;3.67;3.00;;;;;;;;5080049;27;45333;-74
2022/11/08 06:10:52;;;;;;;;;3.50;3.00;;;;;;;;5083829;27;47795;-75
2022/11/08 06:13:17;;;;;;;;;3.25;2.75;;;;;;;;5080030;27;45536;-73
2022/11/08 06:15:43;;;;;;;;;2.00;2.00;;;;;;;;5082252;27;45445;-74
2022/11/08 06:18:08;;;;;;;;;3.50;3.25;;;;;;;;5079703;27;45660;-74
2022/11/08 06:20:33;;;;;;;;;3.00;3.00;;;;;;;;5082079;27;45363;-73
2022/11/08 06:22:58;;;;;;;;;4.00;3.00;;;;;;;;5079935;28;45397;-73
2022/11/08 06:25:23;;;;;;;;;4.00;2.00;;;;;;;;5082027;27;45319;-74
2022/11/08 06:27:49;;;;;;;;;5.00;3.00;;;;;;;;5079430;27;45422;-74
2022/11/08 06:30:14;;;;;;;;;3.00;3.00;;;;;;;;5093271;27;45705;-74
2022/11/08 06:32:39;;;;;;;;;4.00;3.00;;;;;;;;5078398;27;45302;-73
2022/11/08 06:35:05;;;;;;;;;5.00;3.00;;;;;;;;5085231;27;45314;-72
2022/11/08 06:37:30;;;;;;;;;5.00;2.50;;;;;;;;5080541;27;47088;-72
2022/11/08 06:39:55;;;;;;;;;2.00;2.00;;;;;;;;5086478;27;45369;-72
2022/11/08 06:42:20;;;;;;;;;5.00;3.00;;;;;;;;5093645;27;45722;-73
2022/11/08 06:44:46;;;;;;;;;4.00;2.00;;;;;;;;5094799;27;45305;-73
2022/11/08 06:47:11;;;;;;;;;2.75;2.75;;;;;;;;5081725;27;46225;-73
2022/11/08 06:49:36;;;;;;;;;5.00;2.00;;;;;;;;5093752;27;45392;-72
2022/11/08 06:52:02;;;;;;;;;2.00;2.00;;;;;;;;5078293;27;45316;-72
2022/11/08 06:54:27;;;;;;;;;0.00;0.00;;;;;;;;5091869;27;45472;-73
2022/11/08 06:56:54;;;;;;;;;5.00;4.75;;;;;;;;5093667;27;47147;-73
2022/11/08 06:59:19;;;;;;;;;5.00;3.00;;;;;;;;5078401;28;45225;-73
2022/11/08 07:01:45;;;;;;;;;2.75;2.75;;;;;;;;5078680;27;45358;-73
2022/11/08 07:04:10;;;;;;;;;2.33;2.00;;;;;;;;5086619;27;46150;-73
2022/11/08 07:06:35;;;;;;;;;3.50;2.00;;;;;;;;5079487;27;45385;-73
2022/11/08 07:09:00;;;;;;;;;4.75;3.25;;;;;;;;5078897;28;45234;-73
2022/11/08 07:11:26;;;;;;;;;2.50;2.50;;;;;;;;5085780;27;45300;-73
2022/11/08 07:13:51;;;;;;;;;3.00;3.00;;;;;;;;5093677;27;45473;-73
2022/11/08 07:16:16;;;;;;;;;3.00;3.00;;;;;;;;5093332;27;48128;-75
2022/11/08 07:18:41;;;;;;;;;3.50;2.50;;;;;;;;5083321;27;45527;-74
2022/11/08 07:21:06;;;;;;;;;3.00;3.00;;;;;;;;5089108;27;45372;-73
2022/11/08 07:23:32;;;;;;;;;3.00;2.00;;;;;;;;5083787;27;45204;-73
2022/11/08 07:26:01;;;;;;;;;4.25;3.25;;;;;;;;5080206;27;46336;-73
2022/11/08 07:28:26;;;;;;;;;3.00;2.00;;;;;;;;5086809;27;45325;-71
2022/11/08 07:30:56;;;;;;;;;2.75;2.75;;;;;;;;5086429;27;45243;-75
2022/11/08 07:33:21;;;;;;;;;5.00;3.00;;;;;;;;5082672;27;46656;-76
2022/11/08 07:35:46;;;;;;;;;3.00;3.00;;;;;;;;5085289;27;45263;-76
2022/11/08 07:38:11;;;;;;;;;3.00;3.00;;;;;;;;5078156;27;45253;-75
2022/11/08 07:40:36;;;;;;;;;3.75;3.75;;;;;;;;5081089;27;45591;-75
2022/11/08 07:43:02;;;;;;;;;3.00;3.00;;;;;;;;5078043;27;45417;-74
2022/11/08 07:45:27;;;;;;;;;5.00;3.75;;;;;;;;5082952;27;45388;-75
2022/11/08 07:47:56;;;;;;;;;1.67;1.67;;;;;;;;5078224;27;45270;-75
2022/11/08 07:50:21;;;;;;;;;2.67;2.67;;;;;;;;5080902;27;45508;-75
2022/11/08 07:52:49;;;;;;;;;4.67;3.00;;;;;;;;5078289;28;45344;-74
2022/11/08 07:55:14;;;;;;;;;3.00;3.00;;;;;;;;5078296;27;46997;-74
2022/11/08 07:57:39;;;;;;;;;3.00;3.00;;;;;;;;5092617;27;45404;-75
2022/11/08 08:00:05;;;;;;;;;4.00;4.00;;;;;;;;5092797;27;44935;-74
2022/11/08 08:02:30;;;;;;;;;4.00;4.00;;;;;;;;5079484;27;45595;-75
2022/11/08 08:04:55;;;;;;;;;3.67;3.00;;;;;;;;5088181;27;46609;-75
2022/11/08 08:07:20;;;;;;;;;6.33;3.00;;;;;;;;5078052;27;45203;-76
2022/11/08 08:09:46;;;;;;;;;5.00;3.00;;;;;;;;5078257;27;45544;-75
2022/11/08 08:12:11;;;;;;;;;5.00;3.00;;;;;;;;5080733;27;45346;-74
2022/11/08 08:14:36;;;;;;;;;3.00;3.00;;;;;;;;5090088;27;45586;-75
2022/11/08 08:17:01;;;;;;;;;3.00;3.00;;;;;;;;5082136;27;45409;-75
2022/11/08 08:19:26;;;;;;;;;3.00;3.00;;;;;;;;5081879;27;45272;-76
2022/11/08 08:21:52;;;;;;;;;3.67;3.67;;;;;;;;5083663;27;45427;-75
2022/11/08 08:24:17;;;;;;;;;2.67;2.00;;;;;;;;5081178;27;45361;-75
2022/11/08 08:26:42;;;;;;;;;3.00;3.00;;;;;;;;5083303;27;45169;-76
2022/11/08 08:29:07;;;;;;;;;3.33;2.00;;;;;;;;5084169;27;44793;-76
2022/11/08 08:31:32;;;;;;;;;3.00;3.00;;;;;;;;5093188;27;45334;-75
2022/11/08 08:33:58;;;;;;;;;2.00;2.00;;;;;;;;5084619;27;45447;-75
2022/11/08 08:36:23;;;;;;;;;4.00;4.00;;;;;;;;5085091;27;45275;-76
2022/11/08 08:38:48;;;;;;;;;3.00;3.00;;;;;;;;5084673;27;45601;-75
2022/11/08 08:41:13;;;;;;;;;18.00;14.75;;;;;;;;5083417;27;45376;-75
2022/11/08 08:43:38;;;;;;;;;6.67;6.00;;;;;;;;5083236;27;47178;-75
2022/11/08 08:46:05;;;;;;;;;3.00;2.67;;;;;;;;5083322;27;45476;-75
2022/11/08 08:48:30;;;;;;;;;3.00;3.00;;;;;;;;5081456;27;45347;-75
2022/11/08 08:50:56;;;;;;;;;4.00;3.00;;;;;;;;5083322;27;45479;-75
2022/11/08 08:53:21;;;;;;;;;4.67;3.67;;;;;;;;5081180;27;46614;-75
2022/11/08 08:55:52;;;;;;;;;2.00;2.00;;;;;;;;5085059;27;45418;-75
2022/11/08 08:58:18;;;;;;;;;4.00;2.33;;;;;;;;5095497;27;45283;-75
2022/11/08 09:00:43;;;;;;;;;4.33;3.33;;;;;;;;5090721;27;46260;-75
2022/11/08 09:03:09;;;;;;;;;2.00;2.00;;;;;;;;5082100;27;48017;-76
2022/11/08 09:05:35;;;;;;;;;5.00;5.00;;;;;;;;5090118;27;45479;-76
2022/11/08 09:08:00;;;;;;;;;3.67;3.67;;;;;;;;5087725;27;45509;-76
2022/11/08 09:10:26;;;;;;;;;4.00;4.00;;;;;;;;5080136;27;45715;-75
2022/11/08 09:12:51;;;;;;;;;2.33;1.33;;;;;;;;5086339;27;45301;-75
2022/11/08 09:15:16;;;;;;;;;2.67;2.67;;;;;;;;5091100;27;45383;-75
2022/11/08 09:17:42;;;;;;;;;4.67;2.00;;;;;;;;5080063;27;45363;-75
2022/11/08 09:20:08;;;;;;;;;3.00;3.00;;;;;;;;5081011;27;45348;-75
2022/11/08 09:22:33;;;;;;;;;4.33;3.33;;;;;;;;5081390;27;46135;-76
2022/11/08 09:24:58;;;;;;;;;4.33;3.67;;;;;;;;5079334;27;45334;-75
2022/11/08 09:27:24;;;;;;;;;2.67;0.33;;;;;;;;5082222;27;45308;-77
2022/11/08 09:29:49;;;;;;;;;7.00;5.00;;;;;;;;5082679;27;45281;-77
2022/11/08 09:32:14;;;;;;;;;5.00;3.00;;;;;;;;5083957;27;46077;-74
2022/11/08 09:34:39;;;;;;;;;2.00;2.00;;;;;;;;5084812;27;45431;-74
2022/11/08 09:37:04;;;;;;;;;3.33;3.00;;;;;;;;5082298;27;45460;-74
2022/11/08 09:39:30;;;;;;;;;1.67;1.67;;;;;;;;5079694;27;45391;-75
2022/11/08 09:42:07;;;;;;;;;2.00;2.00;;;;;;;;5081732;27;45265;-74
2022/11/08 09:44:50;;;;;;;;;2.67;2.67;;;;;;;;5079438;27;45267;-74
2022/11/08 09:47:16;;;;;;;;;3.00;3.00;;;;;;;;5089988;27;45384;-74
2022/11/08 09:49:44;;;;;;;;;3.00;2.00;;;;;;;;5080197;27;45405;-74
2022/11/08 09:52:14;;;;;;;;;3.00;3.00;;;;;;;;5081529;27;46888;-75
2022/11/08 09:54:41;;;;;;;;;5.00;3.00;;;;;;;;5079283;27;45297;-75
2022/11/08 09:57:12;;;;;;;;;2.00;2.00;;;;;;;;5086855;27;45629;-74
2022/11/08 09:59:44;;;;;;;;;1.67;1.67;;;;;;;;5093257;27;45378;-74
2022/11/08 10:02:15;;;;;;;;;3.00;3.00;;;;;;;;5085615;27;45536;-74
2022/11/08 10:04:40;;;;;;;;;4.00;2.00;;;;;;;;5084887;27;45513;-75
2022/11/08 10:07:18;;;;;;;;;2.00;2.00;;;;;;;;5080435;27;44725;-74
2022/11/08 10:09:53;;;;;;;;;1.67;0.00;;;;;;;;5079105;27;45287;-74
2022/11/08 10:12:19;;;;;;;;;2.00;2.00;;;;;;;;5083500;27;45436;-75
2022/11/08 10:15:03;;;;;;;;;3.67;2.67;;;;;;;;5092004;27;45493;-75
2022/11/08 10:17:30;;;;;;;;;4.67;4.00;;;;;;;;5083878;27;44800;-74
2022/11/08 10:20:07;;;;;;;;;2.00;2.00;;;;;;;;5077502;27;46446;-75
2022/11/08 10:22:35;;;;;;;;;3.67;2.00;;;;;;;;5083472;27;45379;-75
2022/11/08 10:25:01;;;;;;;;;6.00;6.00;;;;;;;;5080040;27;45425;-74
2022/11/08 10:27:38;;;;;;;;;3.33;3.00;;;;;;;;5086766;27;45425;-75
2022/11/08 10:30:05;;;;;;;;;2.67;2.67;;;;;;;;5096938;27;45531;-76
2022/11/08 10:32:32;;;;;;;;;3.67;2.33;;;;;;;;5089008;27;45306;-77
2022/11/08 10:35:17;;;;;;;;;5.67;2.67;;;;;;;;5083767;27;47944;-76
2022/11/08 10:37:43;;;;;;;;;3.00;3.00;;;;;;;;5071297;27;45312;-77
2022/11/08 10:40:18;;;;;;;;;2.00;2.00;;;;;;;;5078700;27;45304;-76
2022/11/08 10:42:50;;;;;;;;;5.00;2.67;;;;;;;;5078448;27;46456;-77
2022/11/08 10:45:15;;;;;;;;;2.67;2.00;;;;;;;;5087329;27;45303;-75
2022/11/08 10:47:43;;;;;;;;;3.67;3.33;;;;;;;;5081737;27;44869;-75
2022/11/08 10:50:13;;;;;;;;;2.33;2.33;;;;;;;;5079980;27;45542;-76
2022/11/08 10:52:53;;;;;;;;;2.00;2.00;;;;;;;;5078998;27;45360;-75
2022/11/08 10:55:24;;;;;;;;;2.00;2.00;;;;;;;;5079263;27;45470;-75
2022/11/08 10:57:49;;;;;;;;;3.00;2.00;;;;;;;;5084985;27;45710;-75
2022/11/08 11:00:16;;;;;;;;;2.00;2.00;;;;;;;;5081907;27;45337;-75
2022/11/08 11:02:42;;;;;;;;;4.00;2.67;;;;;;;;5088070;27;45343;-74
2022/11/08 11:05:17;;;;;;;;;2.67;2.67;;;;;;;;5077779;27;45371;-76
2022/11/08 11:07:59;;;;;;;;;2.67;2.67;;;;;;;;5084353;27;45356;-76
2022/11/08 11:10:29;;;;;;;;;1.33;0.00;;;;;;;;5079442;27;45350;-75
2022/11/08 11:13:02;;;;;;;;;3.67;2.67;;;;;;;;5094655;27;45671;-75
2022/11/08 11:15:51;;;;;;;;;3.00;2.67;;;;;;;;5091845;27;45379;-75
2022/11/08 11:18:25;;;;;;;;;2.33;2.33;;;;;;;;5072141;28;45317;-74
2022/11/08 11:20:56;;;;;;;;;4.67;3.67;;;;;;;;5090570;27;45486;-74
2022/11/08 11:23:21;;;;;;;;;2.67;2.67;;;;;;;;5078062;27;45694;-75
2022/11/08 11:25:50;;;;;;;;;5.33;5.00;;;;;;;;5078242;27;45483;-76
2022/11/08 11:28:15;;;;;;;;;2.67;1.67;;;;;;;;5088708;27;45479;-75
2022/11/08 11:30:46;;;;;;;;;5.67;5.67;;;;;;;;5085157;27;45383;-75
2022/11/08 11:33:24;;;;;;;;;5.33;3.00;;;;;;;;5078444;27;45394;-76
2022/11/08 11:35:52;;;;;;;;;4.67;4.67;;;;;;;;5082966;27;45284;-76
2022/11/08 11:38:29;;;;;;;;;4.67;4.00;;;;;;;;5080868;27;45233;-76
2022/11/08 11:40:58;;;;;;;;;3.00;3.00;;;;;;;;5081275;27;45398;-73
2022/11/08 11:43:36;;;;;;;;;2.67;2.67;;;;;;;;5078623;27;46518;-73
2022/11/08 11:46:12;;;;;;;;;3.67;2.33;;;;;;;;5088484;27;45394;-73
2022/11/08 11:48:52;;;;;;;;;9.00;4.33;;;;;;;;5078724;28;45502;-74
2022/11/08 11:51:17;;;;;;;;;8.33;3.67;;;;;;;;5085365;27;45568;-74
2022/11/08 11:53:42;;;;;;;;;3.67;3.67;;;;;;;;5082331;27;45568;-73
2022/11/08 11:56:20;;;;;;;;;1.67;1.67;;;;;;;;5084263;27;45814;-74
2022/11/08 11:58:54;;;;;;;;;3.00;2.00;;;;;;;;5082001;27;45246;-74
2022/11/08 12:01:19;;;;;;;;;3.00;3.00;;;;;;;;5083757;27;45200;-72
2022/11/08 12:03:51;;;;;;;;;3.00;2.67;;;;;;;;5081903;27;45782;-74
2022/11/08 12:06:22;;;;;;;;;4.00;2.00;;;;;;;;5086420;27;45366;-73
2022/11/08 12:08:47;;;;;;;;;4.00;3.00;;;;;;;;5081884;27;45435;-75
2022/11/08 12:11:16;;;;;;;;;3.00;2.00;;;;;;;;5086861;27;45608;-75
2022/11/08 12:13:41;;;;;;;;;3.00;3.00;;;;;;;;5081829;27;45405;-74
2022/11/08 12:16:17;;;;;;;;;3.00;2.00;;;;;;;;5086435;27;45249;-74
2022/11/08 12:18:42;;;;;;;;;3.00;2.67;;;;;;;;5085325;27;45277;-75
2022/11/08 12:21:20;;;;;;;;;1.67;1.67;;;;;;;;5094272;27;45544;-75
2022/11/08 12:24:04;;;;;;;;;4.33;3.00;;;;;;;;5086386;27;48361;-75
2022/11/08 12:26:35;;;;;;;;;2.33;0.67;;;;;;;;5082351;27;45326;-73
2022/11/08 12:29:19;;;;;;;;;6.33;3.33;;;;;;;;5080694;27;45571;-74
2022/11/08 12:31:57;;;;;;;;;5.33;3.67;;;;;;;;5091710;27;45488;-74
2022/11/08 12:34:22;;;;;;;;;5.00;3.67;;;;;;;;5088367;27;45499;-74
2022/11/08 12:36:48;;;;;;;;;3.00;2.00;;;;;;;;5085497;27;45188;-72
2022/11/08 12:39:19;;;;;;;;;3.33;3.33;;;;;;;;5095347;27;45353;-72
2022/11/08 12:41:44;;;;;;;;;2.67;2.67;;;;;;;;5083354;27;45485;-72
2022/11/08 12:44:09;;;;;;;;;2.67;2.67;;;;;;;;5081367;27;47147;-72
2022/11/08 12:46:40;;;;;;;;;2.00;2.00;;;;;;;;5088030;27;45428;-72
2022/11/08 12:49:15;;;;;;;;;3.33;3.33;;;;;;;;5083083;27;45420;-74
2022/11/08 12:51:58;;;;;;;;;2.00;2.00;;;;;;;;5083428;27;45500;-74
2022/11/08 12:54:37;;;;;;;;;2.00;2.00;;;;;;;;5081411;27;45341;-72
2022/11/08 12:57:26;;;;;;;;;3.33;3.33;;;;;;;;5084036;27;45302;-72
2022/11/08 12:59:56;;;;;;;;;2.67;1.33;;;;;;;;5080538;27;45386;-72
2022/11/08 13:02:23;;;;;;;;;4.33;1.67;;;;;;;;5083570;27;45371;-72
2022/11/08 13:04:51;;;;;;;;;3.33;3.33;;;;;;;;5094609;27;45413;-73
2022/11/08 13:07:21;;;;;;;;;3.00;2.00;;;;;;;;5092989;27;45382;-72
2022/11/08 13:09:59;;;;;;;;;4.33;2.67;;;;;;;;5095345;27;45260;-72
2022/11/08 13:12:31;;;;;;;;;2.00;2.00;;;;;;;;5084375;27;45472;-72
2022/11/08 13:15:00;;;;;;;;;2.00;2.00;;;;;;;;5090208;27;44997;-72
2022/11/08 13:17:26;;;;;;;;;4.33;3.33;;;;;;;;5080460;27;45330;-72
2022/11/08 13:19:53;;;;;;;;;4.33;3.00;;;;;;;;5079362;27;45393;-73
2022/11/08 13:22:39;;;;;;;;;4.00;3.00;;;;;;;;5083919;27;45417;-71
2022/11/08 13:25:27;;;;;;;;;4.33;3.33;;;;;;;;5090985;27;45238;-77
2022/11/08 13:27:53;;;;;;;;;4.33;3.33;;;;;;;;5080071;27;45385;-77
2022/11/08 13:30:18;;;;;;;;;4.00;4.00;;;;;;;;5082698;27;45276;-77
2022/11/08 13:33:02;;;;;;;;;5.00;2.67;;;;;;;;5081761;27;45330;-77
2022/11/08 13:35:30;;;;;;;;;3.00;3.00;;;;;;;;5086094;27;48244;-76
2022/11/08 13:38:07;;;;;;;;;2.00;2.00;;;;;;;;5082770;27;45427;-76
2022/11/08 13:40:51;;;;;;;;;3.33;3.33;;;;;;;;5087824;27;45441;-78
2022/11/08 13:43:24;;;;;;;;;7.33;3.33;;;;;;;;5080489;27;46109;-79
2022/11/08 13:45:50;;;;;;;;;1.67;1.67;;;;;;;;5082657;27;46363;-78
2022/11/08 13:48:15;;;;;;;;;2.67;2.33;;;;;;;;5080176;27;45388;-78
2022/11/08 13:50:44;;;;;;;;;3.33;3.33;;;;;;;;5082863;27;45305;-78
2022/11/08 13:53:09;;;;;;;;;2.00;2.00;;;;;;;;5088447;27;46045;-77
2022/11/08 13:55:40;;;;;;;;;2.00;2.00;;;;;;;;5082544;27;45522;-76
2022/11/08 13:58:25;;;;;;;;;3.67;2.00;;;;;;;;5081112;27;45473;-76
2022/11/08 14:00:50;;;;;;;;;2.33;2.33;;;;;;;;5080910;27;45491;-78
2022/11/08 14:03:31;;;;;;;;;2.67;2.67;;;;;;;;5083842;27;45260;-75
2022/11/08 14:05:59;;;;;;;;;4.00;2.33;;;;;;;;5084236;27;47110;-76
2022/11/08 14:08:27;;;;;;;;;2.67;2.67;;;;;;;;5096141;27;45335;-76
2022/11/08 14:11:00;;;;;;;;;2.67;2.67;;;;;;;;5093254;27;45410;-79
2022/11/08 14:13:58;;;;;;;;;2.00;2.00;;;;;;;;5080097;27;45295;-78
2022/11/08 14:16:27;;;;;;;;;2.67;2.67;;;;;;;;5055193;27;45438;-77
2022/11/08 14:18:52;;;;;;;;;5.33;3.67;;;;;;;;5079867;27;45422;-77
2022/11/08 14:21:18;;;;;;;;;2.00;2.00;;;;;;;;5082385;27;45362;-76
2022/11/08 14:23:44;;;;;;;;;3.00;3.00;;;;;;;;5092493;27;45657;-72
2022/11/08 14:26:10;;;;;;;;;3.00;3.00;;;;;;;;5082851;27;46210;-72
2022/11/08 14:28:36;;;;;;;;;3.33;1.67;;;;;;;;5079493;27;45296;-72
2022/11/08 14:31:03;;;;;;;;;2.33;1.67;;;;;;;;5081938;27;45459;-72
2022/11/08 14:33:29;;;;;;;;;2.33;2.00;;;;;;;;5079665;28;45482;-74
2022/11/08 14:36:02;;;;;;;;;1.67;1.67;;;;;;;;5085886;27;45568;-72
2022/11/08 14:38:29;;;;;;;;;3.33;2.67;;;;;;;;5092042;27;45377;-73
2022/11/08 14:40:57;;;;;;;;;5.00;3.00;;;;;;;;5097276;27;45402;-74
2022/11/08 14:43:22;;;;;;;;;3.33;1.67;;;;;;;;5079258;27;45486;-74
2022/11/08 14:45:48;;;;;;;;;3.00;2.00;;;;;;;;5081538;27;45410;-74
2022/11/08 14:48:18;;;;;;;;;5.33;3.00;;;;;;;;5079283;27;45220;-74
2022/11/08 14:50:44;;;;;;;;;3.00;2.00;;;;;;;;5081721;27;45485;-74
2022/11/08 14:53:19;;;;;;;;;3.00;3.00;;;;;;;;5088160;27;45524;-73
2022/11/08 14:55:44;;;;;;;;;3.33;2.00;;;;;;;;5094242;27;45400;-73
2022/11/08 14:58:13;;;;;;;;;2.00;2.00;;;;;;;;5086065;27;45401;-73
2022/11/08 15:00:40;;;;;;;;;4.33;2.67;;;;;;;;5080240;27;45239;-73
2022/11/08 15:03:12;;;;;;;;;2.33;2.00;;;;;;;;5084232;27;45915;-73
2022/11/08 15:05:37;;;;;;;;;2.00;0.67;;;;;;;;5078900;27;45415;-74
2022/11/08 15:08:04;;;;;;;;;6.67;3.00;;;;;;;;5079169;27;45204;-74